Time;durP1;ratioP1;P1;durP2;ratioP2;P2;SDS_P1;SDS_P2;PMS_P1;PMS_P2;Temp;Humidity;BMP_temperature;BMP_pressure;BME280_temperature;BME280_humidity;BME280_pressure;Samples;Min_cycle;Max_cycle;Signal;HPM_P1;HPM_P2
2024/01/01 00:00:22;;;;;;;0.62;0.62;;;;;;;;;;4372617;32;70163;-72
2024/01/01 00:03:09;;;;;;;0.85;0.50;;;;;;;;;;4383179;32;66050;-73
2024/01/01 00:05:56;;;;;;;0.68;0.40;;;;;;;;;;4361070;32;68101;-72
2024/01/01 00:08:43;;;;;;;0.75;0.68;;;;;;;;;;4383511;32;60220;-72
2024/01/01 00:11:30;;;;;;;1.10;0.62;;;;;;;;;;4372009;32;71538;-72
2024/01/01 00:14:17;;;;;;;1.77;0.98;;;;;;;;;;4382903;32;69276;-72
2024/01/01 00:17:04;;;;;;;3.20;1.55;;;;;;;;;;4372494;32;67910;-72
2024/01/01 00:19:51;;;;;;;2.15;1.30;;;;;;;;;;4382779;32;71842;-72
2024/01/01 00:22:37;;;;;;;1.98;1.40;;;;;;;;;;4382540;32;66485;-72
2024/01/01 00:25:24;;;;;;;2.50;1.60;;;;;;;;;;4371952;32;67164;-72
2024/01/01 00:28:11;;;;;;;3.55;1.40;;;;;;;;;;4372235;32;67741;-73
2024/01/01 00:33:41;;;;;;;1.27;0.73;;;;;;;;;;3847369;37;43436;-73
2024/01/01 00:36:29;;;;;;;1.27;1.08;;;;;;;;;;4377536;32;61243;-72
2024/01/01 00:39:15;;;;;;;1.15;0.73;;;;;;;;;;4398830;32;69370;-72
2024/01/01 00:42:03;;;;;;;1.58;0.70;;;;;;;;;;4399029;32;69273;-72
2024/01/01 00:44:50;;;;;;;0.90;0.68;;;;;;;;;;4399272;32;68169;-72
2024/01/01 00:47:37;;;;;;;0.77;0.70;;;;;;;;;;4410943;32;71742;-72
2024/01/01 00:50:24;;;;;;;0.73;0.70;;;;;;;;;;4399020;32;66218;-72
2024/01/01 00:53:11;;;;;;;0.77;0.70;;;;;;;;;;4410775;32;67445;-72
2024/01/01 00:55:58;;;;;;;0.65;0.57;;;;;;;;;;4399414;32;60358;-73
2024/01/01 00:58:45;;;;;;;0.73;0.62;;;;;;;;;;4409844;32;70881;-72
2024/01/01 01:01:31;;;;;;;0.73;0.62;;;;;;;;;;4388033;32;64920;-73
2024/01/01 01:04:18;;;;;;;0.82;0.75;;;;;;;;;;4409309;32;66720;-72
2024/01/01 01:07:22;;;;;;;1.55;0.90;;;;;;;;;;3847465;37;43878;-72
2024/01/01 01:10:10;;;;;;;0.60;0.60;;;;;;;;;;4388200;32;61208;-72
2024/01/01 01:12:56;;;;;;;1.20;1.10;;;;;;;;;;4388314;32;70828;-72
2024/01/01 01:15:44;;;;;;;1.33;0.82;;;;;;;;;;4378932;32;69380;-72
2024/01/01 01:18:30;;;;;;;0.85;0.85;;;;;;;;;;4401682;32;68210;-73
2024/01/01 01:21:18;;;;;;;1.42;0.80;;;;;;;;;;4378173;32;70924;-73
2024/01/01 01:25:58;;;;;;;1.62;1.27;;;;;;;;;;3847439;37;43075;-73
2024/01/01 01:30:03;;;;;;;2.35;1.58;;;;;;;;;;3847359;37;43872;-73
2024/01/01 01:32:50;;;;;;;2.85;1.73;;;;;;;;;;4388293;32;60218;-73
2024/01/01 01:38:16;;;;;;;3.85;2.25;;;;;;;;;;3847520;37;43098;-72
2024/01/01 01:41:03;;;;;;;4.43;2.60;;;;;;;;;;4398705;32;60869;-72
2024/01/01 01:43:49;;;;;;;;;;;;;;;;;;4388532;32;69488;-72
2024/01/01 01:46:48;;;;;;;4.72;2.90;;;;;;;;;;3847412;37;43497;-72
2024/01/01 01:49:35;;;;;;;4.30;2.65;;;;;;;;;;4387822;32;60779;-72
2024/01/01 01:52:23;;;;;;;5.18;3.15;;;;;;;;;;4388140;32;70297;-73
2024/01/01 01:55:10;;;;;;;5.22;2.95;;;;;;;;;;4399068;32;68344;-72
2024/01/01 01:57:56;;;;;;;6.90;3.83;;;;;;;;;;4373036;32;67543;-72
2024/01/01 02:00:47;;;;;;;6.70;3.12;;;;;;;;;;4383626;32;72217;-72
2024/01/01 02:03:34;;;;;;;5.50;3.60;;;;;;;;;;4372223;32;67044;-72
2024/01/01 02:06:20;;;;;;;5.78;3.53;;;;;;;;;;4383605;32;67245;-73
2024/01/01 02:09:08;;;;;;;5.70;3.80;;;;;;;;;;4373384;32;60348;-72
2024/01/01 02:11:55;;;;;;;6.45;3.62;;;;;;;;;;4372868;32;70573;-72
2024/01/01 02:14:43;;;;;;;5.87;3.58;;;;;;;;;;4383590;32;65953;-73
2024/01/01 02:17:30;;;;;;;6.95;4.22;;;;;;;;;;4372406;32;67155;-72
2024/01/01 02:20:16;;;;;;;5.75;3.60;;;;;;;;;;4396721;32;59252;-72
2024/01/01 02:23:03;;;;;;;6.40;3.90;;;;;;;;;;4394100;32;69606;-72
2024/01/01 02:25:50;;;;;;;7.28;3.80;;;;;;;;;;4361427;32;68944;-73
2024/01/01 02:28:37;;;;;;;7.75;4.22;;;;;;;;;;4372624;32;67638;-72
2024/01/01 02:31:22;;;;;;;6.65;4.47;;;;;;;;;;3868789;36;43660;-73
2024/01/01 02:34:10;;;;;;;6.97;4.40;;;;;;;;;;4400919;32;58898;-72
2024/01/01 02:36:57;;;;;;;6.85;4.47;;;;;;;;;;4414358;32;70676;-72
2024/01/01 02:39:43;;;;;;;6.82;4.05;;;;;;;;;;4390101;32;66982;-72
2024/01/01 02:42:28;;;;;;;8.63;4.45;;;;;;;;;;3847425;37;43991;-71
2024/01/01 02:45:15;;;;;;;8.13;4.55;;;;;;;;;;4388736;32;60136;-72
2024/01/01 02:48:02;;;;;;;6.85;4.30;;;;;;;;;;4388238;32;70713;-72
2024/01/01 02:50:49;;;;;;;7.95;4.85;;;;;;;;;;4388352;32;69042;-73
2024/01/01 02:53:35;;;;;;;8.98;4.87;;;;;;;;;;4399054;32;67390;-73
2024/01/01 02:56:24;;;;;;;6.87;4.28;;;;;;;;;;4383116;32;70112;-72
2024/01/01 02:59:11;;;;;;;8.02;4.30;;;;;;;;;;4372372;32;65324;-71
2024/01/01 03:01:58;;;;;;;6.70;3.90;;;;;;;;;;4372350;32;68072;-72
2024/01/01 03:04:44;;;;;;;7.65;4.40;;;;;;;;;;4383296;32;58045;-72
2024/01/01 03:07:32;;;;;;;;;;;;;;;;;;4383964;32;71569;-71
2024/01/01 03:10:19;;;;;;;7.07;4.03;;;;;;;;;;4394485;32;66122;-72
2024/01/01 03:13:06;;;;;;;7.72;4.32;;;;;;;;;;4383365;32;66181;-73
2024/01/01 03:15:53;;;;;;;7.40;4.37;;;;;;;;;;4395733;32;59192;-73
2024/01/01 03:18:43;;;;;;;6.55;3.92;;;;;;;;;;4372656;32;69496;-72
2024/01/01 03:21:29;;;;;;;6.82;3.85;;;;;;;;;;4393827;32;69354;-72
2024/01/01 03:24:17;;;;;;;7.62;4.15;;;;;;;;;;4394276;32;67734;-72
2024/01/01 03:27:03;;;;;;;7.32;4.32;;;;;;;;;;4383132;32;71563;-72
2024/01/01 03:29:50;;;;;;;8.15;4.18;;;;;;;;;;4394150;32;65143;-72
2024/01/01 03:32:37;;;;;;;7.37;4.18;;;;;;;;;;4393934;32;69029;-72
2024/01/01 03:35:24;;;;;;;7.65;4.50;;;;;;;;;;4372107;32;66473;-72
2024/01/01 03:38:11;;;;;;;8.50;4.45;;;;;;;;;;4383056;32;71785;-71
2024/01/01 03:40:58;;;;;;;8.10;4.68;;;;;;;;;;4394644;32;65452;-72
2024/01/01 03:43:44;;;;;;;6.60;4.15;;;;;;;;;;4371794;32;66726;-72
2024/01/01 03:46:31;;;;;;;;;;;;;;;;;;4383172;32;58034;-72
2024/01/01 03:49:17;;;;;;;8.90;4.70;;;;;;;;;;4404748;32;70107;-72
2024/01/01 03:52:04;;;;;;;7.00;4.07;;;;;;;;;;4390580;32;69490;-71
2024/01/01 03:54:51;;;;;;;8.50;4.80;;;;;;;;;;4383375;32;67231;-72
2024/01/01 03:57:38;;;;;;;8.90;5.15;;;;;;;;;;4362444;32;60172;-72
2024/01/01 04:00:26;;;;;;;6.85;4.72;;;;;;;;;;4383346;32;70490;-72
2024/01/01 04:03:13;;;;;;;8.15;4.85;;;;;;;;;;4372541;32;68853;-72
2024/01/01 04:06:00;;;;;;;8.32;4.53;;;;;;;;;;4361499;32;65670;-71
2024/01/01 04:08:46;;;;;;;7.10;4.50;;;;;;;;;;4372706;32;72284;-72
2024/01/01 04:11:33;;;;;;;6.87;4.43;;;;;;;;;;4362205;32;64717;-72
2024/01/01 04:14:19;;;;;;;10.30;4.43;;;;;;;;;;4363570;32;67149;-73
2024/01/01 04:17:06;;;;;;;8.13;4.80;;;;;;;;;;4364614;32;60148;-72
2024/01/01 04:19:53;;;;;;;9.02;5.10;;;;;;;;;;4373033;32;68226;-73
2024/01/01 04:22:40;;;;;;;7.15;4.30;;;;;;;;;;4373257;32;66291;-72
2024/01/01 04:25:28;;;;;;;10.15;5.50;;;;;;;;;;4372228;32;66879;-72
2024/01/01 04:28:14;;;;;;;9.45;5.55;;;;;;;;;;4362225;32;59292;-71
2024/01/01 04:31:01;;;;;;;10.00;5.68;;;;;;;;;;4372355;32;70519;-73
2024/01/01 04:33:48;;;;;;;7.87;4.95;;;;;;;;;;4371837;32;68947;-72
2024/01/01 04:36:35;;;;;;;5.85;3.83;;;;;;;;;;4372436;32;67889;-72
2024/01/01 04:39:22;;;;;;;7.05;4.50;;;;;;;;;;4382883;32;70864;-73
2024/01/01 04:42:09;;;;;;;7.82;4.70;;;;;;;;;;4362794;32;65872;-72
2024/01/01 04:44:55;;;;;;;7.68;4.70;;;;;;;;;;4373461;32;68716;-72
2024/01/01 04:47:42;;;;;;;8.82;4.68;;;;;;;;;;4371700;32;67325;-72
2024/01/01 04:50:30;;;;;;;8.45;4.87;;;;;;;;;;4360534;32;72292;-72
2024/01/01 04:53:17;;;;;;;6.80;3.58;;;;;;;;;;4371782;32;65951;-71
2024/01/01 04:56:05;;;;;;;5.22;3.30;;;;;;;;;;4360825;32;67862;-72
2024/01/01 04:58:54;;;;;;;6.07;2.53;;;;;;;;;;4361115;32;61127;-72
2024/01/01 05:01:40;;;;;;;3.28;2.30;;;;;;;;;;4361347;32;69386;-72
2024/01/01 05:04:27;;;;;;;3.00;1.90;;;;;;;;;;4381707;32;69975;-72
2024/01/01 05:07:14;;;;;;;2.87;1.60;;;;;;;;;;4372156;32;66714;-72
2024/01/01 05:10:01;;;;;;;1.62;1.30;;;;;;;;;;4372236;32;60214;-73
2024/01/01 05:12:47;;;;;;;2.17;1.30;;;;;;;;;;4371677;32;70041;-72
2024/01/01 05:15:34;;;;;;;1.37;1.23;;;;;;;;;;4371434;32;69621;-73
2024/01/01 05:18:21;;;;;;;1.25;0.90;;;;;;;;;;4382329;32;68196;-73
2024/01/01 05:21:08;;;;;;;1.80;1.10;;;;;;;;;;4371726;32;70734;-72
2024/01/01 05:23:55;;;;;;;0.95;0.90;;;;;;;;;;4371969;32;65811;-72
2024/01/01 05:26:42;;;;;;;1.27;0.90;;;;;;;;;;4371695;32;67312;-71
